Terminal Aerodrome Forecast
Issued by NWS

Home | Current Version | Previous Version | Text Only | Print | Product List | Glossary On
Versions: 1 2 3 4 5 6 7 8 9 10 11 12 13 14 15 16 17 18 19
000
FTUS43 KDVN 012321
TAFCID
TAF
KCID 012321Z 0200/0224 07008KT P6SM BKN120
     FM021000 09007KT 5SM BR SCT015 BKN120
     FM021300 08010KT P6SM SCT015 BKN120=

USA.gov is the U.S. government's official web portal to all federal, state and local government web resources and services.